Time;durP1;ratioP1;P1;durP2;ratioP2;P2;SDS_P1;SDS_P2;PMS_P1;PMS_P2;Temp;Humidity;BMP_temperature;BMP_pressure;BME280_temperature;BME280_humidity;BME280_pressure;Samples;Min_cycle;Max_cycle;Signal;HPM_P1;HPM_P2
2024/01/31 00:00:38;;;;;;;6.28;3.35;;;5.30;99.90;;;;;;5113859;27;20096;-68
2024/01/31 00:03:05;;;;;;;10.98;2.97;;;5.30;99.90;;;;;;5095748;27;20043;-67
2024/01/31 00:05:32;;;;;;;11.95;2.90;;;5.30;99.90;;;;;;5096142;27;20075;-67
2024/01/31 00:08:00;;;;;;;6.32;2.70;;;5.30;99.90;;;;;;5097880;27;20108;-67
2024/01/31 00:10:27;;;;;;;5.50;2.50;;;5.30;99.90;;;;;;5096188;27;20104;-68
2024/01/31 00:12:54;;;;;;;6.47;3.17;;;5.30;99.90;;;;;;5097258;27;20092;-68
2024/01/31 00:15:21;;;;;;;5.90;3.13;;;5.30;99.90;;;;;;5095734;27;20067;-67
2024/01/31 00:17:48;;;;;;;6.97;2.58;;;5.30;99.90;;;;;;5113103;27;20085;-67
2024/01/31 00:20:15;;;;;;;8.05;2.85;;;5.30;99.90;;;;;;5114076;27;20081;-67
2024/01/31 00:22:42;;;;;;;6.22;2.22;;;5.30;99.90;;;;;;5113887;27;20097;-68
2024/01/31 00:25:10;;;;;;;8.93;3.08;;;5.30;99.90;;;;;;5097176;27;20529;-68
2024/01/31 00:27:37;;;;;;;6.60;2.40;;;5.30;99.90;;;;;;5111191;27;20051;-67
2024/01/31 00:30:05;;;;;;;7.68;2.42;;;5.30;99.90;;;;;;5134455;27;20046;-67
2024/01/31 00:32:31;;;;;;;11.15;3.28;;;5.30;99.90;;;;;;5132078;27;20178;-68
2024/01/31 00:34:58;;;;;;;13.30;2.90;;;5.30;99.90;;;;;;5133365;27;20455;-68
2024/01/31 00:37:25;;;;;;;9.55;3.08;;;5.30;99.90;;;;;;5112166;28;20103;-68
2024/01/31 00:39:52;;;;;;;8.02;2.55;;;5.30;99.90;;;;;;5095853;27;20050;-68
2024/01/31 00:42:20;;;;;;;8.52;2.95;;;5.30;99.90;;;;;;5097443;27;20394;-68
2024/01/31 00:44:47;;;;;;;4.30;2.42;;;5.30;99.90;;;;;;5095614;27;20089;-67
2024/01/31 00:47:14;;;;;;;5.03;2.30;;;5.30;99.90;;;;;;5096142;27;20043;-67
2024/01/31 00:49:41;;;;;;;9.82;2.80;;;5.30;99.90;;;;;;5097786;27;20039;-68
2024/01/31 00:52:08;;;;;;;8.07;2.78;;;5.30;99.90;;;;;;5096288;27;20062;-67
2024/01/31 00:54:35;;;;;;;5.93;2.20;;;5.30;99.90;;;;;;5112951;27;20043;-67
2024/01/31 00:57:02;;;;;;;5.40;2.58;;;5.30;99.90;;;;;;5098064;27;20062;-68
2024/01/31 00:59:30;;;;;;;8.13;2.90;;;5.30;99.90;;;;;;5100386;27;20494;-67
2024/01/31 01:01:57;;;;;;;4.88;2.03;;;5.30;99.90;;;;;;5099437;27;20066;-68
2024/01/31 01:04:24;;;;;;;4.13;2.22;;;5.30;99.90;;;;;;5100379;27;20051;-68
2024/01/31 01:06:51;;;;;;;5.32;2.83;;;5.30;99.90;;;;;;5115728;27;20054;-67
2024/01/31 01:09:18;;;;;;;4.72;2.38;;;5.30;99.90;;;;;;5099925;27;20052;-68
2024/01/31 01:11:44;;;;;;;6.30;2.00;;;5.30;99.90;;;;;;5100534;27;20039;-67
2024/01/31 01:14:11;;;;;;;9.00;2.53;;;5.30;99.90;;;;;;5098674;27;20051;-68
2024/01/31 01:16:40;;;;;;;4.15;2.35;;;5.30;99.90;;;;;;5099795;27;20089;-67
2024/01/31 01:19:06;;;;;;;12.10;2.35;;;5.30;99.90;;;;;;5100560;27;20513;-67
2024/01/31 01:21:33;;;;;;;3.97;2.03;;;5.40;99.90;;;;;;5098662;27;20070;-68
2024/01/31 01:24:00;;;;;;;5.50;2.03;;;5.40;99.90;;;;;;5100308;27;20105;-68
2024/01/31 01:26:27;;;;;;;4.90;2.35;;;5.40;99.90;;;;;;5098902;27;20040;-67
2024/01/31 01:28:54;;;;;;;5.70;2.20;;;5.40;99.90;;;;;;5099515;27;20453;-67
2024/01/31 01:31:21;;;;;;;4.57;1.92;;;5.50;99.90;;;;;;5117907;27;20051;-67
2024/01/31 01:33:50;;;;;;;5.90;2.17;;;5.30;99.90;;;;;;5099683;27;20075;-67
2024/01/31 01:36:17;;;;;;;4.75;2.58;;;5.30;99.90;;;;;;5114905;27;20043;-67
2024/01/31 01:38:43;;;;;;;4.15;2.00;;;5.20;99.90;;;;;;5099121;27;20048;-68
2024/01/31 01:41:10;;;;;;;6.82;2.50;;;5.20;99.90;;;;;;5100468;27;20052;-68
2024/01/31 01:43:37;;;;;;;3.42;2.30;;;5.20;99.90;;;;;;5098083;27;20105;-67
2024/01/31 01:46:10;;;;;;;5.75;2.40;;;5.10;99.90;;;;;;5099815;27;20096;-67
2024/01/31 01:48:38;;;;;;;5.15;2.25;;;5.10;99.90;;;;;;5116133;27;20129;-67
2024/01/31 01:51:07;;;;;;;6.35;2.50;;;5.10;99.90;;;;;;5098378;27;20141;-68
2024/01/31 01:53:36;;;;;;;5.32;2.20;;;5.10;99.90;;;;;;5099604;27;20055;-68
2024/01/31 01:56:05;;;;;;;5.82;2.40;;;5.10;99.90;;;;;;5114930;27;20091;-67
2024/01/31 01:58:33;;;;;;;3.92;2.10;;;5.10;99.90;;;;;;5098399;27;20135;-67
2024/01/31 02:01:01;;;;;;;6.28;2.25;;;5.00;99.90;;;;;;5116176;27;20083;-67
2024/01/31 02:03:29;;;;;;;6.10;2.30;;;5.20;99.90;;;;;;5099267;27;20495;-66
2024/01/31 02:05:57;;;;;;;4.07;2.63;;;5.00;99.90;;;;;;5098295;27;20079;-67
2024/01/31 02:08:27;;;;;;;3.45;2.00;;;4.90;99.90;;;;;;5097982;27;20051;-67
2024/01/31 02:10:55;;;;;;;2.55;2.00;;;4.90;99.90;;;;;;5099046;27;20055;-67
2024/01/31 02:13:22;;;;;;;6.15;2.25;;;4.90;99.90;;;;;;5098383;27;20047;-68
2024/01/31 02:15:53;;;;;;;4.13;2.08;;;4.80;99.90;;;;;;5098827;27;20047;-67
2024/01/31 02:18:20;;;;;;;7.53;1.90;;;4.80;99.90;;;;;;5099116;27;20075;-67
2024/01/31 02:20:47;;;;;;;6.43;2.15;;;4.70;99.90;;;;;;5098398;27;20059;-67
2024/01/31 02:23:15;;;;;;;6.75;2.30;;;4.70;99.90;;;;;;5099091;27;20055;-67
2024/01/31 02:25:42;;;;;;;7.97;2.60;;;4.70;99.90;;;;;;5097244;27;20044;-67
2024/01/31 02:28:09;;;;;;;6.43;2.20;;;4.60;99.90;;;;;;5098895;27;20047;-67
2024/01/31 02:30:36;;;;;;;6.72;3.03;;;4.50;99.90;;;;;;5114705;27;20039;-67
2024/01/31 02:33:03;;;;;;;7.53;2.38;;;4.40;99.90;;;;;;5098004;27;20056;-67
2024/01/31 02:35:31;;;;;;;5.63;2.20;;;4.40;99.90;;;;;;5099567;27;20511;-67
2024/01/31 02:37:58;;;;;;;4.30;2.38;;;4.40;99.90;;;;;;5096868;27;20552;-67
2024/01/31 02:40:27;;;;;;;4.10;2.20;;;4.30;99.90;;;;;;5107816;27;20085;-68
2024/01/31 02:42:54;;;;;;;7.70;2.50;;;4.30;99.90;;;;;;5135997;27;20054;-68
2024/01/31 02:45:21;;;;;;;4.60;2.13;;;4.30;99.90;;;;;;5135302;27;20082;-68
2024/01/31 02:47:48;;;;;;;3.20;2.20;;;4.30;99.90;;;;;;5135878;27;20084;-68
2024/01/31 02:50:15;;;;;;;5.90;2.20;;;4.30;99.90;;;;;;5135477;27;20524;-67
2024/01/31 02:52:41;;;;;;;6.38;2.40;;;4.30;99.90;;;;;;5153766;27;20054;-68
2024/01/31 02:55:09;;;;;;;4.75;2.58;;;4.20;99.90;;;;;;5135824;27;20107;-67
2024/01/31 02:57:37;;;;;;;5.70;2.60;;;4.20;99.90;;;;;;5135353;27;20443;-68
2024/01/31 03:00:06;;;;;;;3.28;2.10;;;4.20;99.90;;;;;;5134791;27;20062;-67
2024/01/31 03:02:33;;;;;;;3.78;2.20;;;4.20;99.90;;;;;;5154002;27;20039;-67
2024/01/31 03:05:00;;;;;;;5.15;2.53;;;4.20;99.90;;;;;;5135335;27;20404;-67
2024/01/31 03:07:27;;;;;;;6.38;2.42;;;4.10;99.90;;;;;;5153671;27;20443;-67
2024/01/31 03:09:54;;;;;;;7.38;2.42;;;4.10;99.90;;;;;;5135373;27;20065;-68
2024/01/31 03:12:21;;;;;;;6.60;2.40;;;4.10;99.90;;;;;;5135159;27;20117;-67
2024/01/31 03:14:49;;;;;;;8.65;2.30;;;4.10;99.90;;;;;;5134620;27;20513;-67
2024/01/31 03:17:16;;;;;;;8.30;2.30;;;4.10;99.90;;;;;;5135263;27;20039;-67
2024/01/31 03:19:43;;;;;;;7.75;3.17;;;4.10;99.90;;;;;;5113648;27;20051;-68
2024/01/31 03:22:10;;;;;;;4.00;2.50;;;4.10;99.90;;;;;;5133428;27;20088;-68
2024/01/31 03:24:38;;;;;;;6.47;2.33;;;4.10;99.90;;;;;;5098505;27;20048;-68
2024/01/31 03:27:05;;;;;;;3.70;2.20;;;4.00;99.90;;;;;;5097079;27;20048;-68
2024/01/31 03:29:32;;;;;;;3.30;2.38;;;4.00;99.90;;;;;;5097394;27;20051;-67
2024/01/31 03:32:00;;;;;;;4.75;2.40;;;4.10;99.90;;;;;;5096358;27;20046;-67
2024/01/31 03:34:27;;;;;;;6.53;2.53;;;4.10;99.90;;;;;;5096777;27;20116;-67
2024/01/31 03:36:55;;;;;;;4.70;2.15;;;4.00;99.90;;;;;;5113396;27;20083;-67
2024/01/31 03:39:22;;;;;;;4.90;2.40;;;4.10;99.90;;;;;;5096772;27;20051;-68
2024/01/31 03:41:50;;;;;;;5.20;2.25;;;4.10;99.90;;;;;;5114105;27;20040;-67
2024/01/31 03:44:17;;;;;;;10.98;2.75;;;4.10;99.90;;;;;;5096151;27;20051;-67
2024/01/31 03:46:43;;;;;;;8.10;2.30;;;4.20;99.90;;;;;;5097574;27;20532;-67
2024/01/31 03:49:12;;;;;;;4.97;2.28;;;4.20;99.90;;;;;;5124978;27;20495;-67
2024/01/31 03:51:39;;;;;;;8.50;2.72;;;4.20;99.90;;;;;;5096823;27;20058;-67
2024/01/31 03:54:06;;;;;;;5.63;2.20;;;4.20;99.90;;;;;;5097314;27;20089;-67
2024/01/31 03:56:33;;;;;;;6.53;2.70;;;4.20;99.90;;;;;;5095390;27;20093;-67
2024/01/31 03:58:59;;;;;;;6.63;2.35;;;4.10;99.90;;;;;;5096891;27;20059;-69
2024/01/31 04:01:26;;;;;;;6.00;2.88;;;4.00;99.90;;;;;;5116045;27;20043;-69
2024/01/31 04:03:53;;;;;;;5.00;2.80;;;3.90;99.90;;;;;;5133897;27;20054;-69
2024/01/31 04:06:21;;;;;;;7.25;2.53;;;3.80;99.90;;;;;;5131106;27;20050;-69
2024/01/31 04:08:49;;;;;;;4.72;2.60;;;3.70;99.90;;;;;;5114597;27;20405;-68
2024/01/31 04:11:16;;;;;;;6.63;2.50;;;3.60;99.90;;;;;;5113346;27;20387;-68
2024/01/31 04:13:44;;;;;;;6.10;2.55;;;3.50;99.90;;;;;;5114895;28;20144;-68
2024/01/31 04:16:15;;;;;;;9.40;3.15;;;3.40;99.90;;;;;;5115104;27;20039;-67
2024/01/31 04:18:42;;;;;;;6.35;2.65;;;3.30;99.90;;;;;;5096591;27;20444;-67
2024/01/31 04:21:09;;;;;;;6.00;2.42;;;3.50;99.90;;;;;;5095922;27;20048;-68
2024/01/31 04:23:37;;;;;;;5.72;2.63;;;3.30;99.90;;;;;;5096776;27;20048;-68
2024/01/31 04:26:04;;;;;;;6.05;2.40;;;3.10;99.90;;;;;;5096110;27;20100;-67
2024/01/31 04:28:31;;;;;;;6.90;2.88;;;3.00;99.90;;;;;;5109633;27;20051;-66
2024/01/31 04:30:58;;;;;;;6.68;3.08;;;3.00;99.90;;;;;;5108988;27;20093;-67
2024/01/31 04:33:25;;;;;;;4.20;2.40;;;2.90;99.90;;;;;;5118161;27;20042;-68
2024/01/31 04:35:52;;;;;;;4.82;2.65;;;2.90;99.90;;;;;;5146232;27;20050;-67
2024/01/31 04:38:19;;;;;;;5.07;2.90;;;2.90;99.90;;;;;;5114354;27;20082;-67
2024/01/31 04:40:47;;;;;;;4.15;2.15;;;2.90;99.90;;;;;;5116829;27;20042;-68
2024/01/31 04:43:17;;;;;;;4.60;2.33;;;2.90;99.90;;;;;;5120757;27;20062;-68
2024/01/31 04:45:44;;;;;;;7.65;2.70;;;2.90;99.90;;;;;;5122784;27;20677;-67
2024/01/31 04:48:11;;;;;;;5.78;2.53;;;2.90;99.90;;;;;;5115792;27;20047;-68
2024/01/31 04:50:38;;;;;;;6.55;2.40;;;3.00;99.90;;;;;;5110070;27;20044;-68
2024/01/31 04:53:05;;;;;;;7.47;2.45;;;3.00;99.90;;;;;;5113049;27;20050;-67
2024/01/31 04:55:32;;;;;;;3.45;2.35;;;2.90;99.90;;;;;;5111454;27;20543;-68
2024/01/31 04:58:00;;;;;;;5.57;2.47;;;2.90;99.90;;;;;;5114728;27;20096;-68
2024/01/31 05:00:28;;;;;;;3.80;2.47;;;2.90;99.90;;;;;;5111094;27;20104;-67
2024/01/31 05:02:55;;;;;;;6.85;2.45;;;2.90;99.90;;;;;;5113577;27;20808;-68
2024/01/31 05:05:21;;;;;;;7.35;2.50;;;2.90;99.90;;;;;;5114743;27;20110;-67
2024/01/31 05:07:48;;;;;;;6.45;2.40;;;2.90;99.90;;;;;;5109386;27;20087;-67
2024/01/31 05:10:15;;;;;;;8.57;2.85;;;2.80;99.90;;;;;;5132105;27;20096;-66
2024/01/31 05:12:42;;;;;;;5.82;2.45;;;2.90;99.90;;;;;;5110751;27;20410;-66
2024/01/31 05:15:10;;;;;;;6.18;2.20;;;2.90;99.90;;;;;;5118649;27;20051;-67
2024/01/31 05:17:37;;;;;;;9.25;2.60;;;2.90;99.90;;;;;;5111849;27;20104;-67
2024/01/31 05:20:05;;;;;;;4.82;2.25;;;2.90;99.90;;;;;;5105060;27;20104;-68
2024/01/31 05:22:32;;;;;;;5.72;2.47;;;2.90;99.90;;;;;;5113158;27;20103;-68
2024/01/31 05:24:59;;;;;;;6.25;2.10;;;3.00;99.90;;;;;;5113801;27;20059;-69
2024/01/31 05:27:26;;;;;;;4.25;2.30;;;3.00;99.90;;;;;;5119504;27;20043;-67
2024/01/31 05:29:52;;;;;;;3.90;2.50;;;3.00;99.90;;;;;;5107940;27;20050;-68
2024/01/31 05:32:21;;;;;;;10.85;2.47;;;3.10;99.90;;;;;;5112895;27;20042;-68
2024/01/31 05:34:48;;;;;;;6.43;2.22;;;3.10;99.90;;;;;;5121299;27;20047;-68
2024/01/31 05:37:15;;;;;;;4.15;2.15;;;3.10;99.90;;;;;;5110546;27;20059;-68
2024/01/31 05:39:42;;;;;;;3.78;2.35;;;3.10;99.90;;;;;;5112878;27;20047;-68
2024/01/31 05:42:09;;;;;;;4.55;2.38;;;3.20;99.90;;;;;;5110297;27;20040;-67
2024/01/31 05:44:36;;;;;;;2.78;2.17;;;3.20;99.90;;;;;;5130289;27;20042;-67
2024/01/31 05:47:03;;;;;;;5.63;3.28;;;3.30;99.90;;;;;;5114391;27;20039;-67
2024/01/31 05:49:31;;;;;;;5.57;2.30;;;3.30;99.90;;;;;;5125705;27;20044;-68
2024/01/31 05:51:58;;;;;;;6.35;2.20;;;3.40;99.90;;;;;;5103534;27;20119;-67
2024/01/31 05:54:25;;;;;;;5.88;2.45;;;3.40;99.90;;;;;;5111599;27;20054;-68
2024/01/31 05:56:52;;;;;;;5.18;2.65;;;3.50;99.90;;;;;;5113312;27;20059;-68
2024/01/31 05:59:19;;;;;;;4.93;2.70;;;3.50;99.90;;;;;;5115654;27;20143;-67
2024/01/31 06:01:46;;;;;;;6.70;2.60;;;3.60;99.90;;;;;;5120536;27;20074;-66
2024/01/31 06:04:14;;;;;;;5.35;2.50;;;3.60;99.90;;;;;;5108844;27;20090;-67
2024/01/31 06:06:42;;;;;;;3.30;2.15;;;3.80;99.90;;;;;;5109994;27;20142;-67
2024/01/31 06:09:12;;;;;;;4.25;2.85;;;3.80;99.90;;;;;;5107616;27;20380;-67
2024/01/31 06:11:39;;;;;;;6.65;2.30;;;3.80;99.90;;;;;;5119498;27;20043;-67
2024/01/31 06:14:06;;;;;;;5.95;2.33;;;3.80;99.90;;;;;;5111037;27;20051;-67
2024/01/31 06:16:33;;;;;;;6.50;2.55;;;3.80;99.90;;;;;;5106675;27;20075;-67
2024/01/31 06:19:00;;;;;;;5.55;2.50;;;3.80;99.90;;;;;;5108278;27;20079;-67
2024/01/31 06:21:27;;;;;;;6.38;2.40;;;3.90;99.90;;;;;;5109780;27;20443;-67
2024/01/31 06:23:55;;;;;;;5.65;2.80;;;3.90;99.90;;;;;;5109567;27;20092;-67
2024/01/31 06:26:23;;;;;;;6.70;2.72;;;3.90;99.90;;;;;;5129860;27;20146;-67
2024/01/31 06:28:50;;;;;;;4.80;2.20;;;4.00;99.90;;;;;;5107641;27;20043;-67
2024/01/31 06:31:24;;;;;;;5.43;2.40;;;4.00;99.90;;;;;;5106116;27;20043;-67
2024/01/31 06:33:51;;;;;;;5.85;2.55;;;3.20;99.90;;;;;;5102977;27;20066;-69
2024/01/31 06:36:19;;;;;;;6.90;2.20;;;4.00;99.90;;;;;;5126549;27;20109;-68
2024/01/31 06:38:46;;;;;;;6.78;2.13;;;4.00;99.90;;;;;;5109362;27;20047;-67
2024/01/31 06:41:15;;;;;;;7.65;2.20;;;4.00;99.90;;;;;;5113609;27;20095;-66
2024/01/31 06:43:42;;;;;;;4.75;2.10;;;4.00;99.90;;;;;;5107664;27;20490;-67
2024/01/31 06:46:09;;;;;;;5.38;2.10;;;4.30;99.90;;;;;;5133125;27;20469;-66
2024/01/31 06:48:36;;;;;;;9.57;2.45;;;4.10;99.90;;;;;;5106813;27;20449;-67
2024/01/31 06:51:03;;;;;;;5.80;2.40;;;4.20;99.90;;;;;;5112447;27;20044;-68
2024/01/31 06:53:31;;;;;;;6.50;2.40;;;4.20;99.90;;;;;;5131192;27;20043;-68
2024/01/31 06:55:59;;;;;;;8.85;2.55;;;4.20;99.90;;;;;;5097336;27;20499;-67
2024/01/31 06:58:27;;;;;;;7.95;3.03;;;4.30;99.90;;;;;;5097008;27;20406;-67
2024/01/31 07:00:57;;;;;;;7.40;2.35;;;4.20;99.90;;;;;;5114793;27;20069;-67
2024/01/31 07:03:24;;;;;;;4.43;2.53;;;4.30;99.90;;;;;;5142509;27;20928;-69
2024/01/31 07:05:51;;;;;;;7.00;2.63;;;4.30;99.90;;;;;;5133768;27;20051;-68
2024/01/31 07:08:18;;;;;;;7.75;2.35;;;4.30;99.90;;;;;;5134653;27;20054;-67
2024/01/31 07:10:45;;;;;;;6.60;2.50;;;4.30;99.90;;;;;;5134699;27;20111;-68
2024/01/31 07:13:12;;;;;;;7.57;2.47;;;4.30;99.90;;;;;;5152601;27;20117;-67
2024/01/31 07:15:40;;;;;;;5.38;2.40;;;4.30;99.90;;;;;;5135310;27;20103;-67
2024/01/31 07:18:07;;;;;;;5.50;2.33;;;4.30;99.90;;;;;;5153371;27;20035;-67
2024/01/31 07:20:34;;;;;;;5.38;3.40;;;4.30;99.90;;;;;;5134356;27;20056;-66
2024/01/31 07:23:01;;;;;;;5.80;2.65;;;4.40;99.90;;;;;;5135036;27;20054;-67
2024/01/31 07:25:28;;;;;;;3.95;2.17;;;4.40;99.90;;;;;;5134725;27;20107;-67
2024/01/31 07:27:55;;;;;;;8.02;3.15;;;4.40;99.90;;;;;;5134281;27;20388;-68
2024/01/31 07:30:22;;;;;;;8.13;2.40;;;4.40;99.90;;;;;;5115289;27;20119;-67
2024/01/31 07:32:50;;;;;;;6.50;2.63;;;4.40;99.90;;;;;;5115235;27;20059;-67
2024/01/31 07:35:17;;;;;;;5.53;2.60;;;4.40;99.90;;;;;;5097608;27;20105;-67
2024/01/31 07:37:44;;;;;;;10.98;2.45;;;4.40;99.90;;;;;;5096385;27;20495;-68
2024/01/31 07:40:11;;;;;;;10.95;2.78;;;4.50;99.90;;;;;;5097504;27;20499;-67
2024/01/31 07:42:39;;;;;;;7.35;2.67;;;4.50;99.90;;;;;;5095683;27;20058;-68
2024/01/31 07:45:08;;;;;;;4.85;2.13;;;4.50;99.90;;;;;;5114177;27;20047;-67
2024/01/31 07:47:36;;;;;;;5.70;2.35;;;4.50;99.90;;;;;;5120399;27;20376;-67
2024/01/31 07:50:06;;;;;;;5.05;2.50;;;4.50;99.90;;;;;;5096664;27;20146;-66
2024/01/31 07:52:33;;;;;;;4.90;3.40;;;4.50;99.90;;;;;;5096996;27;20043;-67
2024/01/31 07:55:00;;;;;;;8.88;2.38;;;4.50;99.90;;;;;;5112393;27;20051;-67
2024/01/31 07:57:27;;;;;;;6.75;2.67;;;4.60;99.90;;;;;;5096797;27;20059;-67
2024/01/31 07:59:53;;;;;;;5.75;2.55;;;4.60;99.90;;;;;;5097392;27;20048;-66
2024/01/31 08:02:21;;;;;;;6.55;2.67;;;4.60;99.90;;;;;;5095670;27;20051;-66
2024/01/31 08:04:48;;;;;;;4.10;2.55;;;4.60;99.90;;;;;;5097479;27;20101;-67
2024/01/31 08:07:16;;;;;;;5.47;2.30;;;4.70;99.90;;;;;;5095333;27;20082;-68
2024/01/31 08:09:43;;;;;;;4.70;2.38;;;4.60;99.90;;;;;;5096310;27;20043;-67
2024/01/31 08:12:10;;;;;;;6.72;2.70;;;4.70;99.90;;;;;;5097228;27;20043;-67
2024/01/31 08:14:37;;;;;;;8.00;2.45;;;4.70;99.90;;;;;;5113798;27;20051;-67
2024/01/31 08:17:04;;;;;;;4.88;2.50;;;4.70;99.90;;;;;;5096479;27;20120;-66
2024/01/31 08:19:31;;;;;;;5.00;2.42;;;4.70;99.90;;;;;;5112585;28;20039;-68
2024/01/31 08:21:58;;;;;;;8.75;2.50;;;4.80;99.90;;;;;;5130567;27;20051;-67
2024/01/31 08:24:26;;;;;;;5.35;2.50;;;4.80;99.90;;;;;;5097095;27;20548;-67
2024/01/31 08:26:53;;;;;;;8.52;2.78;;;4.80;99.90;;;;;;5095733;27;20100;-67
2024/01/31 08:29:20;;;;;;;4.72;2.67;;;4.90;99.90;;;;;;5096681;27;20440;-68
2024/01/31 08:31:47;;;;;;;6.50;2.85;;;4.90;99.90;;;;;;5096692;27;20056;-67
2024/01/31 08:34:14;;;;;;;5.50;2.63;;;4.90;99.90;;;;;;5096035;27;20039;-67
2024/01/31 08:36:41;;;;;;;9.35;3.15;;;5.00;99.90;;;;;;5095810;27;20098;-68
2024/01/31 08:39:09;;;;;;;9.23;3.53;;;5.00;99.90;;;;;;5112440;28;20093;-68
2024/01/31 08:41:37;;;;;;;7.80;3.95;;;5.10;99.90;;;;;;5114709;28;20498;-68
2024/01/31 08:44:04;;;;;;;4.60;3.20;;;5.10;99.90;;;;;;5096658;27;20109;-68
2024/01/31 08:46:31;;;;;;;7.35;3.80;;;5.10;99.90;;;;;;5095684;27;20574;-69
2024/01/31 08:48:58;;;;;;;9.20;3.17;;;5.10;99.90;;;;;;5113287;27;20051;-67
2024/01/31 08:51:24;;;;;;;6.10;3.30;;;5.10;99.90;;;;;;5111632;28;20047;-67
2024/01/31 08:53:52;;;;;;;5.43;3.17;;;5.20;99.90;;;;;;5114537;28;20043;-67
2024/01/31 08:56:18;;;;;;;6.90;3.35;;;5.20;99.90;;;;;;5097437;27;20048;-67
2024/01/31 08:58:47;;;;;;;4.60;2.97;;;5.20;99.90;;;;;;5095393;27;20051;-68
2024/01/31 09:01:14;;;;;;;8.35;3.60;;;5.30;99.90;;;;;;5096193;27;20449;-66
2024/01/31 09:03:40;;;;;;;8.50;4.38;;;5.30;99.90;;;;;;5095293;27;20095;-67
2024/01/31 09:06:07;;;;;;;5.13;3.60;;;5.40;99.90;;;;;;5096118;27;20384;-67
2024/01/31 09:08:34;;;;;;;5.35;3.67;;;5.40;99.90;;;;;;5097301;27;20376;-66
2024/01/31 09:11:01;;;;;;;6.82;3.72;;;5.50;99.90;;;;;;5095845;27;20450;-66
2024/01/31 09:13:28;;;;;;;6.60;3.92;;;5.60;99.90;;;;;;5096198;27;20499;-66
2024/01/31 09:15:57;;;;;;;7.32;3.60;;;5.60;99.90;;;;;;5095676;27;20051;-67
2024/01/31 09:18:23;;;;;;;5.78;3.63;;;5.60;99.90;;;;;;5115848;27;20089;-67
2024/01/31 09:20:51;;;;;;;7.85;3.97;;;5.60;99.90;;;;;;5098298;27;20052;-67
2024/01/31 09:23:18;;;;;;;6.90;4.40;;;5.70;99.90;;;;;;5099884;27;20098;-67
2024/01/31 09:25:45;;;;;;;7.25;3.83;;;5.70;99.90;;;;;;5100553;27;20047;-67
2024/01/31 09:28:12;;;;;;;11.90;4.30;;;5.70;99.90;;;;;;5098403;27;20052;-67
2024/01/31 09:30:38;;;;;;;9.70;4.82;;;5.80;99.90;;;;;;5100445;27;20055;-68
2024/01/31 09:33:07;;;;;;;5.95;4.40;;;5.80;99.90;;;;;;5098710;27;20111;-67
2024/01/31 09:35:34;;;;;;;8.18;4.90;;;5.80;99.90;;;;;;5100201;27;20100;-67
2024/01/31 09:38:00;;;;;;;6.95;4.90;;;5.90;99.90;;;;;;5098634;27;20055;-67
2024/01/31 09:40:28;;;;;;;7.07;4.82;;;5.90;99.90;;;;;;5098728;27;20040;-67
2024/01/31 09:42:55;;;;;;;7.65;5.18;;;5.90;99.90;;;;;;5114284;27;20103;-68
2024/01/31 09:45:23;;;;;;;9.38;5.63;;;5.90;99.90;;;;;;5099204;27;20048;-67
2024/01/31 09:47:51;;;;;;;6.70;5.50;;;6.00;99.90;;;;;;5098870;27;20498;-68
2024/01/31 09:50:19;;;;;;;7.57;6.03;;;6.00;99.90;;;;;;5100692;27;20100;-67
2024/01/31 09:52:53;;;;;;;7.28;5.80;;;6.00;99.90;;;;;;5098664;27;20449;-68
2024/01/31 09:55:23;;;;;;;8.35;5.60;;;6.10;99.90;;;;;;5098332;27;20051;-68
2024/01/31 09:57:50;;;;;;;8.32;6.32;;;6.10;99.90;;;;;;5099381;27;20044;-68
2024/01/31 10:00:18;;;;;;;10.45;6.45;;;6.20;99.90;;;;;;5115968;27;20410;-67
2024/01/31 10:02:49;;;;;;;9.90;6.88;;;6.20;99.90;;;;;;5098210;27;20368;-67
2024/01/31 10:05:15;;;;;;;10.27;6.65;;;6.30;99.90;;;;;;5116281;27;20067;-67
2024/01/31 10:07:44;;;;;;;9.93;7.00;;;6.30;99.90;;;;;;5098154;27;20044;-66
2024/01/31 10:10:11;;;;;;;9.00;6.97;;;6.30;99.90;;;;;;5115449;27;20055;-67
2024/01/31 10:12:39;;;;;;;8.13;5.90;;;6.30;99.90;;;;;;5133294;27;20074;-67
2024/01/31 10:15:08;;;;;;;9.32;6.50;;;6.30;99.90;;;;;;5098338;27;20082;-67
2024/01/31 10:17:35;;;;;;;9.63;6.47;;;6.20;99.90;;;;;;5098932;27;20052;-67
2024/01/31 10:20:07;;;;;;;8.65;6.70;;;6.30;99.90;;;;;;5099639;27;20043;-67
2024/01/31 10:22:36;;;;;;;7.47;5.70;;;6.40;99.90;;;;;;5097160;27;20048;-67
2024/01/31 10:25:07;;;;;;;8.35;5.68;;;6.40;99.90;;;;;;5098688;27;20055;-67
2024/01/31 10:27:35;;;;;;;;;;;6.50;99.90;;;;;;5099155;27;20051;-67
2024/01/31 10:30:04;;;;;;;8.98;6.20;;;6.50;99.90;;;;;;5098017;27;20341;-66
2024/01/31 10:32:34;;;;;;;7.03;5.45;;;6.50;99.90;;;;;;5097639;27;20082;-68
2024/01/31 10:35:02;;;;;;;11.48;6.93;;;6.50;99.90;;;;;;5098374;27;20052;-66
2024/01/31 10:37:30;;;;;;;10.00;6.18;;;6.60;99.90;;;;;;5098771;27;20051;-68
2024/01/31 10:39:59;;;;;;;8.88;6.22;;;6.60;99.90;;;;;;5097234;27;20059;-67
2024/01/31 10:42:28;;;;;;;9.82;6.10;;;6.70;99.90;;;;;;5098091;27;20143;-67
2024/01/31 10:44:55;;;;;;;10.07;6.28;;;6.70;99.90;;;;;;5098465;27;20449;-67
2024/01/31 10:47:22;;;;;;;11.48;6.40;;;6.80;99.90;;;;;;5097746;27;20098;-67
2024/01/31 10:49:49;;;;;;;8.00;5.72;;;6.80;99.90;;;;;;5098190;27;20044;-67
2024/01/31 10:52:19;;;;;;;8.85;5.57;;;6.80;99.90;;;;;;5096387;27;20048;-67
2024/01/31 10:54:51;;;;;;;8.68;5.88;;;6.80;99.90;;;;;;5097971;27;20135;-68
2024/01/31 10:57:18;;;;;;;9.13;6.22;;;6.80;99.90;;;;;;5097904;27;20047;-67
2024/01/31 10:59:49;;;;;;;8.98;5.40;;;6.80;99.90;;;;;;5113542;27;20088;-67
2024/01/31 11:02:17;;;;;;;9.50;5.97;;;6.80;99.90;;;;;;5116297;27;20046;-68
2024/01/31 11:04:44;;;;;;;8.05;5.97;;;6.90;99.90;;;;;;5097179;27;20043;-66
2024/01/31 11:07:17;;;;;;;9.15;6.43;;;6.80;99.90;;;;;;5098820;27;20380;-68
2024/01/31 11:09:45;;;;;;;8.07;5.47;;;6.90;99.90;;;;;;5112842;27;20071;-67
2024/01/31 11:12:13;;;;;;;7.18;5.50;;;6.90;99.90;;;;;;5115482;27;20059;-66
2024/01/31 11:14:43;;;;;;;8.43;5.68;;;6.90;99.90;;;;;;5098006;27;20083;-67
2024/01/31 11:17:12;;;;;;;7.15;5.28;;;7.00;99.90;;;;;;5132172;27;20043;-67
2024/01/31 11:19:42;;;;;;;8.77;6.10;;;6.80;99.90;;;;;;5095881;27;20040;-67
2024/01/31 11:22:10;;;;;;;8.13;5.78;;;6.90;99.90;;;;;;5096768;27;20518;-67
2024/01/31 11:24:43;;;;;;;10.77;6.30;;;6.90;99.90;;;;;;5097794;27;20059;-67
2024/01/31 11:27:10;;;;;;;7.63;5.13;;;6.90;99.90;;;;;;5115244;27;20091;-67
2024/01/31 11:29:37;;;;;;;9.77;5.72;;;6.90;99.90;;;;;;5096395;27;20043;-67
2024/01/31 11:32:04;;;;;;;7.97;5.95;;;6.90;99.90;;;;;;5097279;27;20059;-67
2024/01/31 11:34:32;;;;;;;7.50;5.35;;;6.90;99.90;;;;;;5113354;27;20084;-67
2024/01/31 11:36:59;;;;;;;8.68;5.97;;;7.00;99.90;;;;;;5115571;27;20386;-67
2024/01/31 11:39:26;;;;;;;7.90;5.95;;;7.00;99.90;;;;;;5097584;27;20043;-68
2024/01/31 11:41:54;;;;;;;7.38;5.40;;;7.00;99.90;;;;;;5095821;27;20442;-67
2024/01/31 11:44:21;;;;;;;6.82;4.78;;;6.90;99.90;;;;;;5097214;27;20468;-67
2024/01/31 11:46:48;;;;;;;6.50;4.88;;;7.00;99.90;;;;;;5112432;27;20058;-66
2024/01/31 11:49:15;;;;;;;5.15;4.20;;;7.00;99.90;;;;;;5096462;27;20127;-67
2024/01/31 11:51:43;;;;;;;5.93;4.70;;;7.00;99.90;;;;;;5097888;27;20044;-66
2024/01/31 11:54:10;;;;;;;9.18;5.28;;;7.00;99.90;;;;;;5115654;27;20048;-66
2024/01/31 11:56:37;;;;;;;9.07;5.07;;;7.00;99.90;;;;;;5096746;27;20043;-66
2024/01/31 11:59:05;;;;;;;6.63;4.80;;;7.00;99.90;;;;;;5113647;27;20502;-67
2024/01/31 12:01:32;;;;;;;7.20;5.20;;;7.00;99.90;;;;;;5095637;27;20047;-66
2024/01/31 12:04:01;;;;;;;5.78;4.95;;;7.00;99.90;;;;;;5097244;27;20051;-67
2024/01/31 12:06:27;;;;;;;6.93;5.53;;;7.00;99.90;;;;;;5112758;28;20065;-67
2024/01/31 12:08:56;;;;;;;7.75;5.72;;;7.00;99.90;;;;;;5114213;27;20495;-67
2024/01/31 12:11:23;;;;;;;7.65;5.20;;;7.00;99.90;;;;;;5133026;27;20497;-67
2024/01/31 12:13:50;;;;;;;7.53;5.18;;;7.00;99.90;;;;;;5114943;28;20043;-68
2024/01/31 12:16:17;;;;;;;7.60;5.35;;;6.90;99.90;;;;;;5132453;27;20479;-68
2024/01/31 12:18:44;;;;;;;7.15;5.80;;;6.90;99.90;;;;;;5114763;27;20042;-68
2024/01/31 12:21:11;;;;;;;9.93;5.65;;;6.90;99.90;;;;;;5114419;28;20134;-68
2024/01/31 12:23:38;;;;;;;7.45;5.00;;;6.90;99.90;;;;;;5096842;27;20139;-68
2024/01/31 12:26:06;;;;;;;7.18;5.50;;;6.90;99.90;;;;;;5096101;27;20074;-68
2024/01/31 12:28:33;;;;;;;6.85;5.38;;;6.80;99.90;;;;;;5096724;27;20101;-68
2024/01/31 12:31:00;;;;;;;7.05;5.25;;;6.80;99.90;;;;;;5111631;28;20104;-67
2024/01/31 12:33:27;;;;;;;9.38;5.65;;;7.00;99.90;;;;;;5096466;27;20047;-67
2024/01/31 12:35:54;;;;;;;6.10;4.97;;;6.90;99.90;;;;;;5096758;27;20069;-68
2024/01/31 12:38:21;;;;;;;5.78;5.10;;;6.80;99.90;;;;;;5095585;27;20051;-67
2024/01/31 12:40:48;;;;;;;6.30;5.18;;;6.90;99.90;;;;;;5096447;27;20050;-67
2024/01/31 12:43:16;;;;;;;7.70;6.28;;;6.90;99.90;;;;;;5097314;27;20052;-68
2024/01/31 12:45:43;;;;;;;8.02;5.57;;;6.90;99.90;;;;;;5096092;27;20541;-68
2024/01/31 12:48:10;;;;;;;6.72;5.28;;;6.90;99.90;;;;;;5097430;27;20071;-68
2024/01/31 12:50:37;;;;;;;7.82;5.60;;;6.90;99.90;;;;;;5095362;27;20485;-68
2024/01/31 12:53:04;;;;;;;7.25;5.75;;;6.90;99.90;;;;;;5099256;27;20062;-68
2024/01/31 12:55:31;;;;;;;9.80;5.38;;;6.90;99.90;;;;;;5099449;27;20055;-68
2024/01/31 12:57:58;;;;;;;8.50;6.10;;;7.00;99.90;;;;;;5100157;27;20104;-68